Outrageous — WDE7310 — position and weather

sailwx.info

Track history (hours):
 
Tides and Currents Weather Stations Pressure Air Temp Water Temp Dewpoint Dewpoint Depression Visibility Wind Speed Wind Dir Waves Ship Positions

Outrageous

Owner: GT Gator Inc Corp America, Dover, DE. More information available from US FCC via Universal Licensing System and Coast Guard Vessel Documentation Center.

Last reported at 2017-Nov-24 02:43 UTC. Time now 2017-Nov-24 09:38 UTC.
Position N 40°54' W 073°41'.

; draft 3.4 m.

Type: Tug. MMSI: 366381650.

Date/timePositionNaut miles runAvg speedWind from/ knotsBaromVisibWave heightAir tempDewpointWater temp
2017-Nov-24 02:43N 40°54' W 073°41'2 7.3
2017-Nov-24 02:27N 40°53' W 073°43'4 7.7
2017-Nov-24 01:59N 40°50' W 073°46'3 6.5
2017-Nov-24 01:30N 40°48' W 073°49'4 7.8
2017-Nov-24 01:00N 40°48' W 073°54'4 8.3
2017-Nov-24 00:31N 40°45' W 073°58'3 6.7
2017-Nov-24 00:00N 40°42' W 074°00'3 5.5
2017-Nov-23 23:30N 40°40' W 074°03'1 2.3
2017-Nov-23 23:01N 40°41' W 074°05'1 1.3
2017-Nov-23 22:31N 40°41' W 074°04'3 5.5
2017-Nov-23 22:00N 40°42' W 074°00'11 7.2
2017-Nov-23 20:30N 40°48' W 073°49'4 5.8
2017-Nov-23 19:50N 40°51' W 073°45'  
Track history (hours):
 
Tides and Currents Weather Stations Pressure Air Temp Water Temp Dewpoint Dewpoint Depression Visibility Wind Speed Wind Dir Waves Ship Positions

Outrageous

Owner: GT Gator Inc Corp America, Dover, DE. More information available from US FCC via Universal Licensing System and Coast Guard Vessel Documentation Center.

Last reported at 2017-Nov-24 02:43 UTC. Time now 2017-Nov-24 09:38 UTC.
Position N 40°54' W 073°41'.

; draft 3.4 m.

Type: Tug. MMSI: 366381650.

Date/timePositionNaut miles runAvg speedWind from/ knotsBaromVisibWave heightAir tempDewpointWater temp
2017-Nov-24 02:43N 40°54' W 073°41'2 7.3
2017-Nov-24 02:27N 40°53' W 073°43'4 7.7
2017-Nov-24 01:59N 40°50' W 073°46'3 6.5
2017-Nov-24 01:30N 40°48' W 073°49'4 7.8
2017-Nov-24 01:00N 40°48' W 073°54'4 8.3
2017-Nov-24 00:31N 40°45' W 073°58'3 6.7
2017-Nov-24 00:00N 40°42' W 074°00'3 5.5
2017-Nov-23 23:30N 40°40' W 074°03'1 2.3
2017-Nov-23 23:01N 40°41' W 074°05'1 1.3
2017-Nov-23 22:31N 40°41' W 074°04'3 5.5
2017-Nov-23 22:00N 40°42' W 074°00'11 7.2
2017-Nov-23 20:30N 40°48' W 073°49'4 5.8
2017-Nov-23 19:50N 40°51' W 073°45'  

Dump ship's entire track history